Terminal Aerodrome Forecast
Issued by NWS

Home | Current Version | Previous Version | Text Only | Print | Product List | Glossary On
Versions: 1 2 3 4 5 6 7 8 9 10 11 12 13 14 15 16 17 18 19 20 21 22 23 24 25 26 27 28 29 30 31 32
000
FTAK31 PANC 021741
TAFADU
TAF
PADU 021741Z 0218/0318 34006KT 4SM BR SCT003 BKN015
      TEMPO 0218/0221 1SM -RA BR BKN003
     FM022100 34005KT P6SM -SHRA BKN015
     FM030200 35006KT P6SM BKN025 BKN040=

USA.gov is the U.S. government's official web portal to all federal, state and local government web resources and services.